Houston, Canada
Current Conditions -  °F | °C
As of 4:00 PM on Thursday 27 Nov 2014 (Local Time) from CYYD Reporting Station
Light Snow Light Snow  
Wind Chill:   Ceiling: 3000
Heat Index: 18°   Visibility: 4mi
Dew Point: 10°   Wind: 12mph
Humidity: 73%   Direction: 180°S
Pressure: 29.81"   Gusts: NA
Location:  54.4°N, 126.65°W
Report Text: CYYD 280000Z 18010KT 4SM -SN DRSN BKN030 OVC045 M08/M12 A2981 RMK SC5SC3 SLP123
Loading
Personal Weather Stations






























Interactive Weather Map New forecast layout! Learn more

10-Day Weather Forecast

Advertisements
Track Severe Weather on mobile